»·PEaware :: NASA408 PHNL-KLAS

NASA408 :: PHNL-KLAS

FLIGHT INFORMATION

Flight Status: Arrived
Operator: Unknown
More flights by this operator :: More flights under this callsign
Pilot: Anonymous 3903 (3903)
Aircraft: LOCKHEED SR-71 BLACKBIRD
(SR71)
More flights by this aircraft type
Origin: PHNL Honolulu Intl
United States
Destination: KLAS McCarran Intl
United States
More flights between these airports :: More routes between these airports
Route: +MKK4 EBBER R577 ELKEY LAX J9 DAG CLARR2
File this flight plan on PilotEdge
Remarks: Unable < 320kts below 10000
Altitude:
(Current/Filed)
80,000ft
Speed:
(Current/Filed)
1855kts
Departed: 02-Feb-15 04:18 PM
Arrived: 02-Feb-15 06:23 PM
Distance/Time
Traveled:
2396nm/2:04
Distance/Time
To Go:
Arrived

Flight Plot

Page will automatically refresh every two minutes.

Flight plan parsing failed; only flown route is shown


Map Options




Map Legend


Flown Route
Filed Route
Departure Airport
Arrival Airport
Navaid (VOR, NDB)
Fix

Horizontal Profiles

Position Reports

Time Latitude Longitude Heading Altitude Ground
Speed
02-Feb-15 16:06 21.331340 -157.929456 155 20ft 0kts
02-Feb-15 16:07 21.331339 -157.929455 155 20ft 0kts
02-Feb-15 16:08 21.331338 -157.929455 155 20ft 0kts
02-Feb-15 16:09 21.331336 -157.929454 155 20ft 0kts
02-Feb-15 16:10 21.331335 -157.929454 155 20ft 0kts
02-Feb-15 16:11 21.330321 -157.929001 172 20ft 8kts
02-Feb-15 16:12 21.327246 -157.928993 105 20ft 15kts
02-Feb-15 16:13 21.327138 -157.917866 91 20ft 42kts
02-Feb-15 16:14 21.330076 -157.909240 54 20ft 28kts
02-Feb-15 16:15 21.330041 -157.907336 141 20ft 20kts
02-Feb-15 16:16 21.328140 -157.907016 234 20ft 13kts
02-Feb-15 16:17 21.291185 -157.944392 202 10055ft 367kts
02-Feb-15 16:18 21.158364 -157.939376 155 18036ft 591kts
02-Feb-15 16:19 21.056381 -157.798260 111 17920ft 631kts
02-Feb-15 16:20 21.022058 -157.610500 95 20208ft 653kts
02-Feb-15 16:21 21.015634 -157.415886 88 23206ft 652kts
02-Feb-15 16:22 21.017415 -157.237062 88 22948ft 637kts
02-Feb-15 16:23 21.021204 -157.043833 87 24521ft 663kts
02-Feb-15 16:24 21.026399 -156.844026 86 24960ft 678kts
02-Feb-15 16:25 21.032234 -156.641471 86 24893ft 680kts
02-Feb-15 16:26 21.038154 -156.438092 86 25211ft 682kts
02-Feb-15 16:27 21.043816 -156.234754 86 25413ft 683kts
02-Feb-15 16:28 21.049330 -156.030772 86 25617ft 686kts
02-Feb-15 16:29 21.054362 -155.826486 86 25820ft 688kts
02-Feb-15 16:30 21.060485 -155.621158 81 26029ft 689kts
02-Feb-15 16:31 21.097728 -155.421910 69 28039ft 686kts
02-Feb-15 16:32 21.155312 -155.219754 68 29052ft 734kts
02-Feb-15 16:33 21.228234 -154.976395 68 30053ft 971kts
02-Feb-15 16:34 21.307804 -154.712939 68 32523ft 931kts
02-Feb-15 16:35 21.388300 -154.444705 68 35116ft 951kts
02-Feb-15 16:36 21.469344 -154.173503 69 36653ft 957kts
02-Feb-15 16:37 21.550580 -153.901124 68 37653ft 954kts
02-Feb-15 16:38 21.622558 -153.676575 66 38489ft 950kts
02-Feb-15 16:39 21.729924 -153.366559 66 39654ft 938kts
02-Feb-15 16:40 21.805676 -153.149115 64 40489ft 924kts
02-Feb-15 16:41 21.920450 -152.850334 62 41657ft 927kts
02-Feb-15 16:42 22.028106 -152.596165 60 43223ft 937kts
02-Feb-15 16:43 22.124629 -152.382214 59 44969ft 960kts
02-Feb-15 16:44 22.250327 -152.123308 58 47932ft 991kts
02-Feb-15 16:45 22.382944 -151.855524 59 50942ft 1032kts
02-Feb-15 16:46 22.524727 -151.576207 60 53953ft 1087kts
02-Feb-15 16:47 22.672365 -151.279246 61 56968ft 1150kts
02-Feb-15 16:48 22.823716 -150.961140 62 59981ft 1223kts
02-Feb-15 16:49 22.978787 -150.618620 63 62993ft 1304kts
02-Feb-15 16:50 23.143693 -150.243475 64 66012ft 1440kts
02-Feb-15 16:51 23.322272 -149.831501 64 69025ft 1565kts
02-Feb-15 16:52 23.517997 -149.386369 63 72031ft 1689kts
02-Feb-15 16:53 23.734287 -148.909206 63 75035ft 1815kts
02-Feb-15 16:54 23.966802 -148.402240 62 78029ft 1915kts
02-Feb-15 16:55 24.204895 -147.882469 63 79918ft 1899kts
02-Feb-15 16:56 24.440108 -147.365743 63 79963ft 1886kts
02-Feb-15 16:57 24.672582 -146.850202 63 81239ft 1876kts
02-Feb-15 16:58 24.902588 -146.334412 63 82883ft 1872kts
02-Feb-15 16:59 25.130267 -145.817555 63 84376ft 1870kts
02-Feb-15 17:00 25.355811 -145.298916 64 85869ft 1871kts
02-Feb-15 17:01 25.579345 -144.778077 64 86928ft 1868kts
02-Feb-15 17:02 25.800267 -144.256372 64 86961ft 1863kts
02-Feb-15 17:03 26.018344 -143.734296 65 86968ft 1857kts
02-Feb-15 17:04 26.233671 -143.211681 65 86975ft 1852kts
02-Feb-15 17:05 26.446353 -142.688352 65 86981ft 1848kts
02-Feb-15 17:06 26.655838 -142.165763 65 86993ft 1845kts
02-Feb-15 17:07 26.863529 -141.640482 66 87006ft 1842kts
02-Feb-15 17:08 27.068938 -141.113743 66 87012ft 1840kts
02-Feb-15 17:09 27.272181 -140.585280 66 87019ft 1838kts
02-Feb-15 17:10 27.473029 -140.055704 66 87025ft 1837kts
02-Feb-15 17:11 27.671749 -139.524323 66 87031ft 1836kts
02-Feb-15 17:12 27.868332 -138.991152 67 86870ft 1838kts
02-Feb-15 17:13 28.063237 -138.454917 67 86672ft 1843kts
02-Feb-15 17:14 28.256955 -137.914188 67 86474ft 1852kts
02-Feb-15 17:15 28.449510 -137.368777 67 86277ft 1865kts
02-Feb-15 17:16 28.641430 -136.817024 68 86082ft 1880kts
02-Feb-15 17:17 28.832121 -136.260413 68 86060ft 1888kts
02-Feb-15 17:18 29.020757 -135.701160 68 86063ft 1863kts
02-Feb-15 17:19 29.202673 -135.152853 69 86066ft 1837kts
02-Feb-15 17:20 29.382902 -134.600435 69 86069ft 1857kts
02-Feb-15 17:21 29.562617 -134.040434 69 86078ft 1878kts
02-Feb-15 17:22 29.742160 -133.471645 69 86083ft 1900kts
02-Feb-15 17:23 29.920604 -132.896762 70 86083ft 1921kts
02-Feb-15 17:24 30.098810 -132.312652 70 86081ft 1924kts
02-Feb-15 17:25 30.273453 -131.729738 70 86068ft 1908kts
02-Feb-15 17:26 30.444065 -131.149349 71 86065ft 1892kts
02-Feb-15 17:27 30.610522 -130.571895 71 86074ft 1879kts
02-Feb-15 17:28 30.773315 -129.995776 71 86082ft 1869kts
02-Feb-15 17:29 30.932765 -129.419985 72 86088ft 1862kts
02-Feb-15 17:30 31.089021 -128.844131 72 86094ft 1858kts
02-Feb-15 17:31 31.242293 -128.267541 72 86100ft 1854kts
02-Feb-15 17:32 31.392602 -127.690186 72 86118ft 1852kts
02-Feb-15 17:33 31.540086 -127.111551 73 86107ft 1850kts
02-Feb-15 17:34 31.684287 -126.533446 73 86102ft 1849kts
02-Feb-15 17:35 31.802895 -126.048196 73 86105ft 1848kts
02-Feb-15 17:36 31.942379 -125.465482 74 86111ft 1848kts
02-Feb-15 17:37 32.079063 -124.880834 74 86115ft 1848kts
02-Feb-15 17:38 32.212519 -124.295760 74 86129ft 1849kts
02-Feb-15 17:39 32.343225 -123.707558 75 86153ft 1850kts
02-Feb-15 17:40 32.470900 -123.116286 75 86152ft 1850kts
02-Feb-15 17:41 32.594648 -122.523370 75 86149ft 1851kts
02-Feb-15 17:42 32.709281 -121.929068 78 85714ft 1852kts
02-Feb-15 17:43 32.846063 -121.341829 67 84330ft 1830kts
02-Feb-15 17:44 33.060086 -120.797063 60 82914ft 1799kts
02-Feb-15 17:45 33.307331 -120.285966 57 78945ft 1748kts
02-Feb-15 17:46 33.558680 -119.809321 59 72849ft 1615kts
02-Feb-15 17:47 33.748027 -119.354872 67 66774ft 1431kts
02-Feb-15 17:48 33.873784 -118.934376 67 60669ft 1236kts
02-Feb-15 17:49 34.009319 -118.590373 60 54571ft 1040kts
02-Feb-15 17:50 34.139101 -118.310241 58 48477ft 878kts
02-Feb-15 17:51 34.251870 -118.080706 55 43789ft 680kts
02-Feb-15 17:52 34.339596 -117.905382 53 41771ft 609kts
02-Feb-15 17:53 34.429047 -117.726822 54 39780ft 593kts
02-Feb-15 17:54 34.509455 -117.560177 54 37805ft 556kts
02-Feb-15 17:55 34.585741 -117.399180 55 35817ft 544kts
02-Feb-15 17:56 34.657991 -117.244733 56 31180ft 541kts
02-Feb-15 17:57 34.733626 -117.081625 57 26661ft 576kts
02-Feb-15 17:58 34.814085 -116.906540 58 23144ft 603kts
02-Feb-15 17:59 34.896424 -116.725205 59 19637ft 616kts
02-Feb-15 18:00 34.988860 -116.549039 48 16138ft 621kts
02-Feb-15 18:01 35.108357 -116.394220 43 14043ft 626kts
02-Feb-15 18:02 35.230967 -116.243045 43 13490ft 577kts
02-Feb-15 18:03 35.332553 -116.116502 43 13181ft 498kts
02-Feb-15 18:04 35.424731 -116.000010 44 13203ft 463kts
02-Feb-15 18:05 35.510409 -115.890105 42 13154ft 425kts
02-Feb-15 18:06 35.591856 -115.787663 43 13167ft 415kts
02-Feb-15 18:07 35.671283 -115.685518 43 13162ft 412kts
02-Feb-15 18:08 35.752382 -115.585525 42 13185ft 411kts
02-Feb-15 18:09 35.832845 -115.484471 44 13171ft 412kts
02-Feb-15 18:10 35.910721 -115.382458 43 13182ft 400kts
02-Feb-15 18:11 35.976789 -115.274570 81 11230ft 404kts
02-Feb-15 18:12 35.961824 -115.146147 102 9140ft 360kts
02-Feb-15 18:13 35.953137 -115.038083 87 7057ft 292kts
02-Feb-15 18:14 35.962931 -114.941355 45 6168ft 277kts
02-Feb-15 18:15 36.038843 -114.933704 345 5560ft 284kts
02-Feb-15 18:16 36.080142 -115.010583 285 4318ft 271kts
02-Feb-15 18:17 36.073721 -115.100810 266 2631ft 239kts
02-Feb-15 18:18 36.073980 -115.143960 295 2188ft 18kts
02-Feb-15 18:19 36.077249 -115.146578 352 2188ft 0kts
02-Feb-15 18:20 36.078890 -115.146995 58 2188ft 16kts
02-Feb-15 18:21 36.081050 -115.144184 343 2188ft 0kts
02-Feb-15 18:22 36.081051 -115.144185 343 2188ft 0kts

Navigation Log

Ident Type
Flight plan parsing failed, navigation log unavailable